sensor_id;sensor_type;location;lat;lon;timestamp;P1;durP1;ratioP1;P2;durP2;ratioP2
31674;SDS011;18276;45.520;11.018;2022-09-01T00:01:51;7.90;;;3.58;;
31674;SDS011;18276;45.520;11.018;2022-09-01T00:04:20;5.43;;;3.08;;
31674;SDS011;18276;45.520;11.018;2022-09-01T00:06:53;7.00;;;3.55;;
31674;SDS011;18276;45.520;11.018;2022-09-01T00:09:21;7.28;;;3.78;;
31674;SDS011;18276;45.520;11.018;2022-09-01T00:11:50;6.30;;;3.50;;
31674;SDS011;18276;45.520;11.018;2022-09-01T00:14:20;5.13;;;3.22;;
31674;SDS011;18276;45.520;11.018;2022-09-01T00:16:59;4.35;;;3.30;;
31674;SDS011;18276;45.520;11.018;2022-09-01T00:19:29;6.68;;;3.22;;
31674;SDS011;18276;45.520;11.018;2022-09-01T00:21:59;8.20;;;3.65;;
31674;SDS011;18276;45.520;11.018;2022-09-01T00:24:26;5.18;;;3.40;;
31674;SDS011;18276;45.520;11.018;2022-09-01T00:26:54;14.32;;;4.15;;
31674;SDS011;18276;45.520;11.018;2022-09-01T00:29:23;4.75;;;3.38;;
31674;SDS011;18276;45.520;11.018;2022-09-01T00:31:51;3.88;;;3.17;;
31674;SDS011;18276;45.520;11.018;2022-09-01T00:34:19;4.43;;;3.65;;
31674;SDS011;18276;45.520;11.018;2022-09-01T00:36:46;5.78;;;3.42;;
31674;SDS011;18276;45.520;11.018;2022-09-01T00:39:14;8.10;;;3.58;;
31674;SDS011;18276;45.520;11.018;2022-09-01T00:41:41;5.90;;;3.13;;
31674;SDS011;18276;45.520;11.018;2022-09-01T00:44:12;5.53;;;2.90;;
31674;SDS011;18276;45.520;11.018;2022-09-01T00:46:44;3.92;;;3.45;;
31674;SDS011;18276;45.520;11.018;2022-09-01T00:52:15;7.15;;;3.85;;
31674;SDS011;18276;45.520;11.018;2022-09-01T00:54:53;7.75;;;3.78;;
31674;SDS011;18276;45.520;11.018;2022-09-01T00:57:23;6.55;;;4.00;;
31674;SDS011;18276;45.520;11.018;2022-09-01T01:00:04;5.97;;;3.78;;
31674;SDS011;18276;45.520;11.018;2022-09-01T01:02:37;7.28;;;3.63;;
31674;SDS011;18276;45.520;11.018;2022-09-01T01:05:06;7.13;;;3.58;;
31674;SDS011;18276;45.520;11.018;2022-09-01T01:07:41;4.60;;;3.60;;
31674;SDS011;18276;45.520;11.018;2022-09-01T01:10:13;6.47;;;3.97;;
31674;SDS011;18276;45.520;11.018;2022-09-01T01:12:43;7.88;;;4.55;;
31674;SDS011;18276;45.520;11.018;2022-09-01T01:15:11;6.35;;;4.03;;
31674;SDS011;18276;45.520;11.018;2022-09-01T01:17:39;5.07;;;3.72;;
31674;SDS011;18276;45.520;11.018;2022-09-01T01:20:06;7.35;;;3.67;;
31674;SDS011;18276;45.520;11.018;2022-09-01T01:23:03;5.75;;;3.88;;
31674;SDS011;18276;45.520;11.018;2022-09-01T01:25:47;7.13;;;4.25;;
31674;SDS011;18276;45.520;11.018;2022-09-01T01:30:59;8.85;;;3.45;;
31674;SDS011;18276;45.520;11.018;2022-09-01T01:33:33;5.70;;;3.60;;
31674;SDS011;18276;45.520;11.018;2022-09-01T01:36:13;8.05;;;3.47;;
31674;SDS011;18276;45.520;11.018;2022-09-01T01:41:21;7.68;;;3.95;;
31674;SDS011;18276;45.520;11.018;2022-09-01T01:43:49;4.25;;;3.83;;
31674;SDS011;18276;45.520;11.018;2022-09-01T01:46:18;6.35;;;3.50;;
31674;SDS011;18276;45.520;11.018;2022-09-01T01:48:47;6.28;;;4.10;;
31674;SDS011;18276;45.520;11.018;2022-09-01T01:51:16;4.70;;;3.65;;
31674;SDS011;18276;45.520;11.018;2022-09-01T01:53:46;6.03;;;3.85;;
31674;SDS011;18276;45.520;11.018;2022-09-01T01:56:18;5.18;;;3.40;;
31674;SDS011;18276;45.520;11.018;2022-09-01T01:58:51;8.52;;;4.47;;
31674;SDS011;18276;45.520;11.018;2022-09-01T02:01:21;9.55;;;3.95;;
31674;SDS011;18276;45.520;11.018;2022-09-01T02:03:50;4.18;;;3.60;;
31674;SDS011;18276;45.520;11.018;2022-09-01T02:06:20;5.53;;;3.75;;
31674;SDS011;18276;45.520;11.018;2022-09-01T02:08:54;8.70;;;3.50;;
31674;SDS011;18276;45.520;11.018;2022-09-01T02:11:24;6.78;;;3.63;;
31674;SDS011;18276;45.520;11.018;2022-09-01T02:13:52;13.05;;;4.45;;
31674;SDS011;18276;45.520;11.018;2022-09-01T02:16:24;5.35;;;3.60;;
31674;SDS011;18276;45.520;11.018;2022-09-01T02:18:54;15.45;;;4.78;;
31674;SDS011;18276;45.520;11.018;2022-09-01T02:21:22;10.43;;;3.60;;
31674;SDS011;18276;45.520;11.018;2022-09-01T02:23:51;8.35;;;4.07;;
31674;SDS011;18276;45.520;11.018;2022-09-01T02:26:30;4.80;;;3.45;;
31674;SDS011;18276;45.520;11.018;2022-09-01T02:29:00;4.30;;;3.28;;
31674;SDS011;18276;45.520;11.018;2022-09-01T02:31:32;5.65;;;3.97;;
31674;SDS011;18276;45.520;11.018;2022-09-01T02:34:01;8.48;;;3.75;;
31674;SDS011;18276;45.520;11.018;2022-09-01T02:36:29;4.38;;;3.90;;
31674;SDS011;18276;45.520;11.018;2022-09-01T02:39:00;8.18;;;5.05;;
31674;SDS011;18276;45.520;11.018;2022-09-01T02:41:27;4.97;;;3.67;;
31674;SDS011;18276;45.520;11.018;2022-09-01T02:43:57;5.20;;;3.60;;
31674;SDS011;18276;45.520;11.018;2022-09-01T02:46:28;7.13;;;3.53;;
31674;SDS011;18276;45.520;11.018;2022-09-01T02:48:57;5.78;;;3.58;;
31674;SDS011;18276;45.520;11.018;2022-09-01T02:51:26;6.57;;;4.18;;
31674;SDS011;18276;45.520;11.018;2022-09-01T02:53:53;6.18;;;3.63;;
31674;SDS011;18276;45.520;11.018;2022-09-01T02:56:21;8.50;;;4.00;;
31674;SDS011;18276;45.520;11.018;2022-09-01T02:58:52;3.67;;;3.00;;
31674;SDS011;18276;45.520;11.018;2022-09-01T03:01:22;4.55;;;3.65;;
31674;SDS011;18276;45.520;11.018;2022-09-01T03:03:52;7.32;;;3.60;;
31674;SDS011;18276;45.520;11.018;2022-09-01T03:06:22;6.90;;;3.60;;
31674;SDS011;18276;45.520;11.018;2022-09-01T03:08:50;9.10;;;3.30;;
31674;SDS011;18276;45.520;11.018;2022-09-01T03:11:22;9.73;;;3.83;;
31674;SDS011;18276;45.520;11.018;2022-09-01T03:13:50;6.43;;;3.25;;
31674;SDS011;18276;45.520;11.018;2022-09-01T03:16:18;12.40;;;4.45;;
31674;SDS011;18276;45.520;11.018;2022-09-01T03:18:48;5.55;;;3.35;;
31674;SDS011;18276;45.520;11.018;2022-09-01T03:21:17;7.85;;;3.13;;
31674;SDS011;18276;45.520;11.018;2022-09-01T03:23:46;4.47;;;3.08;;
31674;SDS011;18276;45.520;11.018;2022-09-01T03:26:14;10.82;;;3.97;;
31674;SDS011;18276;45.520;11.018;2022-09-01T03:28:44;4.80;;;3.47;;
31674;SDS011;18276;45.520;11.018;2022-09-01T03:31:12;6.10;;;3.80;;
31674;SDS011;18276;45.520;11.018;2022-09-01T03:33:41;7.78;;;3.33;;
31674;SDS011;18276;45.520;11.018;2022-09-01T03:36:15;5.75;;;3.50;;
31674;SDS011;18276;45.520;11.018;2022-09-01T03:38:46;5.43;;;3.55;;
31674;SDS011;18276;45.520;11.018;2022-09-01T03:41:18;5.57;;;3.00;;
31674;SDS011;18276;45.520;11.018;2022-09-01T03:43:54;6.05;;;3.22;;
31674;SDS011;18276;45.520;11.018;2022-09-01T03:46:26;7.50;;;3.75;;
31674;SDS011;18276;45.520;11.018;2022-09-01T03:49:02;11.18;;;4.60;;
31674;SDS011;18276;45.520;11.018;2022-09-01T03:51:35;8.90;;;3.95;;
31674;SDS011;18276;45.520;11.018;2022-09-01T03:54:05;7.68;;;3.80;;
31674;SDS011;18276;45.520;11.018;2022-09-01T03:56:32;5.03;;;3.25;;
31674;SDS011;18276;45.520;11.018;2022-09-01T03:58:59;7.03;;;4.13;;
31674;SDS011;18276;45.520;11.018;2022-09-01T04:01:27;4.43;;;3.30;;
31674;SDS011;18276;45.520;11.018;2022-09-01T04:03:58;5.28;;;3.58;;
31674;SDS011;18276;45.520;11.018;2022-09-01T04:06:29;8.50;;;3.55;;
31674;SDS011;18276;45.520;11.018;2022-09-01T04:08:57;5.93;;;3.65;;
31674;SDS011;18276;45.520;11.018;2022-09-01T04:11:31;6.05;;;3.75;;
31674;SDS011;18276;45.520;11.018;2022-09-01T04:13:59;6.20;;;3.70;;
31674;SDS011;18276;45.520;11.018;2022-09-01T04:16:29;4.35;;;3.17;;
31674;SDS011;18276;45.520;11.018;2022-09-01T04:19:18;5.00;;;3.50;;
31674;SDS011;18276;45.520;11.018;2022-09-01T04:21:53;10.00;;;3.85;;
31674;SDS011;18276;45.520;11.018;2022-09-01T04:24:36;9.63;;;3.63;;
31674;SDS011;18276;45.520;11.018;2022-09-01T04:27:10;5.97;;;3.70;;
31674;SDS011;18276;45.520;11.018;2022-09-01T04:29:39;5.78;;;4.43;;
31674;SDS011;18276;45.520;11.018;2022-09-01T04:32:08;6.68;;;3.70;;
31674;SDS011;18276;45.520;11.018;2022-09-01T04:34:41;5.38;;;3.15;;
31674;SDS011;18276;45.520;11.018;2022-09-01T04:37:12;8.73;;;4.00;;
31674;SDS011;18276;45.520;11.018;2022-09-01T04:39:48;7.75;;;3.72;;
31674;SDS011;18276;45.520;11.018;2022-09-01T04:42:23;7.03;;;3.83;;
31674;SDS011;18276;45.520;11.018;2022-09-01T04:44:53;10.30;;;4.13;;
31674;SDS011;18276;45.520;11.018;2022-09-01T04:47:24;9.80;;;4.18;;
31674;SDS011;18276;45.520;11.018;2022-09-01T04:50:04;7.18;;;4.20;;
31674;SDS011;18276;45.520;11.018;2022-09-01T04:52:42;8.38;;;4.10;;
31674;SDS011;18276;45.520;11.018;2022-09-01T04:55:21;8.13;;;4.20;;
31674;SDS011;18276;45.520;11.018;2022-09-01T04:57:51;5.30;;;3.80;;
31674;SDS011;18276;45.520;11.018;2022-09-01T05:00:20;6.97;;;4.38;;
31674;SDS011;18276;45.520;11.018;2022-09-01T05:02:52;9.43;;;4.72;;
31674;SDS011;18276;45.520;11.018;2022-09-01T05:05:23;6.88;;;4.00;;
31674;SDS011;18276;45.520;11.018;2022-09-01T05:07:51;6.10;;;3.85;;
31674;SDS011;18276;45.520;11.018;2022-09-01T05:10:21;9.02;;;4.22;;
31674;SDS011;18276;45.520;11.018;2022-09-01T05:13:13;5.60;;;3.80;;
31674;SDS011;18276;45.520;11.018;2022-09-01T05:15:44;9.13;;;3.95;;
31674;SDS011;18276;45.520;11.018;2022-09-01T05:18:13;6.28;;;4.05;;
31674;SDS011;18276;45.520;11.018;2022-09-01T05:20:42;7.35;;;3.53;;
31674;SDS011;18276;45.520;11.018;2022-09-01T05:23:10;9.80;;;3.85;;
31674;SDS011;18276;45.520;11.018;2022-09-01T05:25:39;5.60;;;3.47;;
31674;SDS011;18276;45.520;11.018;2022-09-01T05:28:10;12.15;;;4.25;;
31674;SDS011;18276;45.520;11.018;2022-09-01T05:30:39;7.90;;;3.90;;
31674;SDS011;18276;45.520;11.018;2022-09-01T05:33:07;6.38;;;3.47;;
31674;SDS011;18276;45.520;11.018;2022-09-01T05:35:38;10.82;;;4.18;;
31674;SDS011;18276;45.520;11.018;2022-09-01T05:38:10;10.88;;;3.78;;
31674;SDS011;18276;45.520;11.018;2022-09-01T05:40:40;6.65;;;3.83;;
31674;SDS011;18276;45.520;11.018;2022-09-01T05:43:12;6.45;;;3.90;;
31674;SDS011;18276;45.520;11.018;2022-09-01T05:45:40;9.48;;;3.90;;
31674;SDS011;18276;45.520;11.018;2022-09-01T05:48:30;6.00;;;4.00;;
31674;SDS011;18276;45.520;11.018;2022-09-01T05:51:08;7.57;;;3.88;;
31674;SDS011;18276;45.520;11.018;2022-09-01T05:53:57;8.80;;;3.72;;
31674;SDS011;18276;45.520;11.018;2022-09-01T05:56:29;7.45;;;3.88;;
31674;SDS011;18276;45.520;11.018;2022-09-01T05:59:01;8.20;;;4.07;;
31674;SDS011;18276;45.520;11.018;2022-09-01T06:01:50;10.23;;;4.13;;
31674;SDS011;18276;45.520;11.018;2022-09-01T06:04:20;15.98;;;4.55;;
31674;SDS011;18276;45.520;11.018;2022-09-01T06:06:51;8.80;;;3.65;;
31674;SDS011;18276;45.520;11.018;2022-09-01T06:09:41;10.88;;;3.95;;
31674;SDS011;18276;45.520;11.018;2022-09-01T06:12:11;17.13;;;4.05;;
31674;SDS011;18276;45.520;11.018;2022-09-01T06:14:47;11.68;;;3.95;;
31674;SDS011;18276;45.520;11.018;2022-09-01T06:17:17;8.98;;;4.45;;
31674;SDS011;18276;45.520;11.018;2022-09-01T06:19:51;11.65;;;3.42;;
31674;SDS011;18276;45.520;11.018;2022-09-01T06:22:22;10.00;;;4.45;;
31674;SDS011;18276;45.520;11.018;2022-09-01T06:24:52;10.73;;;3.97;;
31674;SDS011;18276;45.520;11.018;2022-09-01T06:27:30;8.00;;;3.80;;
31674;SDS011;18276;45.520;11.018;2022-09-01T06:30:00;11.85;;;4.80;;
31674;SDS011;18276;45.520;11.018;2022-09-01T06:32:34;14.55;;;4.25;;
31674;SDS011;18276;45.520;11.018;2022-09-01T06:35:04;15.77;;;4.32;;
31674;SDS011;18276;45.520;11.018;2022-09-01T06:37:35;16.42;;;3.83;;
31674;SDS011;18276;45.520;11.018;2022-09-01T06:40:05;5.88;;;3.70;;
31674;SDS011;18276;45.520;11.018;2022-09-01T06:42:36;7.45;;;4.07;;
31674;SDS011;18276;45.520;11.018;2022-09-01T06:45:03;8.75;;;3.58;;
31674;SDS011;18276;45.520;11.018;2022-09-01T06:47:36;11.95;;;4.00;;
31674;SDS011;18276;45.520;11.018;2022-09-01T06:50:03;12.00;;;5.57;;
31674;SDS011;18276;45.520;11.018;2022-09-01T06:52:34;13.13;;;3.97;;
31674;SDS011;18276;45.520;11.018;2022-09-01T06:55:26;10.88;;;3.95;;
31674;SDS011;18276;45.520;11.018;2022-09-01T06:58:00;12.50;;;3.97;;
31674;SDS011;18276;45.520;11.018;2022-09-01T07:00:33;22.80;;;4.78;;
31674;SDS011;18276;45.520;11.018;2022-09-01T07:03:04;9.63;;;4.13;;
31674;SDS011;18276;45.520;11.018;2022-09-01T07:05:46;17.15;;;5.20;;
31674;SDS011;18276;45.520;11.018;2022-09-01T07:08:46;18.08;;;4.93;;
31674;SDS011;18276;45.520;11.018;2022-09-01T07:11:36;17.35;;;4.18;;
31674;SDS011;18276;45.520;11.018;2022-09-01T07:14:24;8.02;;;4.05;;
31674;SDS011;18276;45.520;11.018;2022-09-01T07:16:51;13.13;;;4.35;;
31674;SDS011;18276;45.520;11.018;2022-09-01T07:19:38;13.88;;;4.82;;
31674;SDS011;18276;45.520;11.018;2022-09-01T07:22:22;16.08;;;4.00;;
31674;SDS011;18276;45.520;11.018;2022-09-01T07:25:09;17.05;;;4.45;;
31674;SDS011;18276;45.520;11.018;2022-09-01T07:27:47;20.08;;;4.68;;
31674;SDS011;18276;45.520;11.018;2022-09-01T07:30:17;11.23;;;4.05;;
31674;SDS011;18276;45.520;11.018;2022-09-01T07:32:49;13.50;;;5.13;;
31674;SDS011;18276;45.520;11.018;2022-09-01T07:35:19;14.98;;;5.60;;
31674;SDS011;18276;45.520;11.018;2022-09-01T07:37:49;27.42;;;5.57;;
31674;SDS011;18276;45.520;11.018;2022-09-01T07:40:39;21.33;;;5.15;;
31674;SDS011;18276;45.520;11.018;2022-09-01T07:43:46;20.13;;;6.15;;
31674;SDS011;18276;45.520;11.018;2022-09-01T07:46:45;22.45;;;5.20;;
31674;SDS011;18276;45.520;11.018;2022-09-01T07:49:37;22.75;;;4.93;;
31674;SDS011;18276;45.520;11.018;2022-09-01T07:52:25;18.60;;;4.88;;
31674;SDS011;18276;45.520;11.018;2022-09-01T07:54:56;19.00;;;4.90;;
31674;SDS011;18276;45.520;11.018;2022-09-01T07:57:23;11.63;;;4.00;;
31674;SDS011;18276;45.520;11.018;2022-09-01T07:59:51;16.40;;;4.63;;
31674;SDS011;18276;45.520;11.018;2022-09-01T08:02:38;17.52;;;4.07;;
31674;SDS011;18276;45.520;11.018;2022-09-01T08:05:07;18.55;;;5.20;;
31674;SDS011;18276;45.520;11.018;2022-09-01T08:07:38;14.32;;;5.15;;
31674;SDS011;18276;45.520;11.018;2022-09-01T08:10:26;18.23;;;4.43;;
31674;SDS011;18276;45.520;11.018;2022-09-01T08:12:54;18.40;;;4.95;;
31674;SDS011;18276;45.520;11.018;2022-09-01T08:15:23;21.85;;;4.93;;
31674;SDS011;18276;45.520;11.018;2022-09-01T08:18:11;15.98;;;4.82;;
31674;SDS011;18276;45.520;11.018;2022-09-01T08:20:40;18.23;;;4.90;;
31674;SDS011;18276;45.520;11.018;2022-09-01T08:23:39;10.73;;;4.35;;
31674;SDS011;18276;45.520;11.018;2022-09-01T08:26:10;13.80;;;4.53;;
31674;SDS011;18276;45.520;11.018;2022-09-01T08:28:39;23.00;;;4.43;;
31674;SDS011;18276;45.520;11.018;2022-09-01T08:31:13;10.93;;;4.20;;
31674;SDS011;18276;45.520;11.018;2022-09-01T08:33:44;7.60;;;2.58;;
31674;SDS011;18276;45.520;11.018;2022-09-01T08:36:14;6.28;;;2.75;;
31674;SDS011;18276;45.520;11.018;2022-09-01T08:38:49;9.07;;;3.08;;
31674;SDS011;18276;45.520;11.018;2022-09-01T08:44:32;3.28;;;1.63;;
31674;SDS011;18276;45.520;11.018;2022-09-01T08:47:20;5.20;;;1.70;;
31674;SDS011;18276;45.520;11.018;2022-09-01T08:50:07;2.55;;;1.60;;
31674;SDS011;18276;45.520;11.018;2022-09-01T08:52:56;5.93;;;1.50;;
31674;SDS011;18276;45.520;11.018;2022-09-01T08:55:41;6.32;;;1.92;;
31674;SDS011;18276;45.520;11.018;2022-09-01T08:58:13;2.38;;;1.65;;
31674;SDS011;18276;45.520;11.018;2022-09-01T09:01:24;3.05;;;2.00;;
31674;SDS011;18276;45.520;11.018;2022-09-01T09:09:39;4.28;;;1.60;;
31674;SDS011;18276;45.520;11.018;2022-09-01T09:12:31;4.32;;;2.33;;
31674;SDS011;18276;45.520;11.018;2022-09-01T09:17:48;2.70;;;1.70;;
31674;SDS011;18276;45.520;11.018;2022-09-01T09:20:26;1.83;;;1.65;;
31674;SDS011;18276;45.520;11.018;2022-09-01T09:22:53;4.68;;;1.95;;
31674;SDS011;18276;45.520;11.018;2022-09-01T09:25:24;4.82;;;1.92;;
31674;SDS011;18276;45.520;11.018;2022-09-01T09:27:55;2.05;;;1.65;;
31674;SDS011;18276;45.520;11.018;2022-09-01T09:30:29;3.00;;;1.77;;
31674;SDS011;18276;45.520;11.018;2022-09-01T09:35:50;1.38;;;1.25;;
31674;SDS011;18276;45.520;11.018;2022-09-01T09:38:21;1.17;;;1.08;;
31674;SDS011;18276;45.520;11.018;2022-09-01T09:41:14;1.52;;;1.10;;
31674;SDS011;18276;45.520;11.018;2022-09-01T09:46:48;1.23;;;1.13;;
31674;SDS011;18276;45.520;11.018;2022-09-01T09:49:22;1.20;;;1.08;;
31674;SDS011;18276;45.520;11.018;2022-09-01T09:54:40;2.28;;;1.20;;
31674;SDS011;18276;45.520;11.018;2022-09-01T09:57:23;1.80;;;1.10;;
31674;SDS011;18276;45.520;11.018;2022-09-01T10:02:39;1.52;;;1.42;;
31674;SDS011;18276;45.520;11.018;2022-09-01T10:07:55;2.58;;;1.30;;
31674;SDS011;18276;45.520;11.018;2022-09-01T10:10:25;1.42;;;1.30;;
31674;SDS011;18276;45.520;11.018;2022-09-01T10:12:53;2.95;;;1.20;;
31674;SDS011;18276;45.520;11.018;2022-09-01T10:15:25;1.20;;;1.10;;
31674;SDS011;18276;45.520;11.018;2022-09-01T10:17:57;1.25;;;1.08;;
31674;SDS011;18276;45.520;11.018;2022-09-01T10:20:53;1.60;;;1.45;;
31674;SDS011;18276;45.520;11.018;2022-09-01T10:23:49;1.60;;;1.20;;
31674;SDS011;18276;45.520;11.018;2022-09-01T10:26:17;1.60;;;1.50;;
31674;SDS011;18276;45.520;11.018;2022-09-01T10:31:19;1.38;;;1.20;;
31674;SDS011;18276;45.520;11.018;2022-09-01T10:33:47;1.52;;;1.42;;
31674;SDS011;18276;45.520;11.018;2022-09-01T10:36:15;2.85;;;1.40;;
31674;SDS011;18276;45.520;11.018;2022-09-01T10:38:43;1.77;;;1.63;;
31674;SDS011;18276;45.520;11.018;2022-09-01T10:44:25;4.05;;;1.50;;
31674;SDS011;18276;45.520;11.018;2022-09-01T10:47:00;2.42;;;1.52;;
31674;SDS011;18276;45.520;11.018;2022-09-01T10:52:51;3.17;;;1.20;;
31674;SDS011;18276;45.520;11.018;2022-09-01T10:55:22;2.45;;;1.55;;
31674;SDS011;18276;45.520;11.018;2022-09-01T10:58:23;1.05;;;1.05;;
31674;SDS011;18276;45.520;11.018;2022-09-01T11:01:10;1.73;;;1.42;;
31674;SDS011;18276;45.520;11.018;2022-09-01T11:03:49;3.25;;;1.65;;
31674;SDS011;18276;45.520;11.018;2022-09-01T11:09:04;1.30;;;1.13;;
31674;SDS011;18276;45.520;11.018;2022-09-01T11:11:43;2.50;;;1.30;;
31674;SDS011;18276;45.520;11.018;2022-09-01T11:14:18;2.00;;;1.40;;
31674;SDS011;18276;45.520;11.018;2022-09-01T11:19:53;2.38;;;1.30;;
31674;SDS011;18276;45.520;11.018;2022-09-01T11:22:39;2.65;;;1.20;;
31674;SDS011;18276;45.520;11.018;2022-09-01T11:30:17;1.23;;;1.23;;
31674;SDS011;18276;45.520;11.018;2022-09-01T11:32:50;1.90;;;1.10;;
31674;SDS011;18276;45.520;11.018;2022-09-01T11:35:23;1.40;;;1.10;;
31674;SDS011;18276;45.520;11.018;2022-09-01T11:38:00;3.25;;;1.20;;
31674;SDS011;18276;45.520;11.018;2022-09-01T11:40:31;1.65;;;1.13;;
31674;SDS011;18276;45.520;11.018;2022-09-01T11:43:04;1.33;;;1.23;;
31674;SDS011;18276;45.520;11.018;2022-09-01T11:45:43;1.35;;;1.15;;
31674;SDS011;18276;45.520;11.018;2022-09-01T11:48:44;2.05;;;1.52;;
31674;SDS011;18276;45.520;11.018;2022-09-01T11:51:17;1.00;;;0.90;;
31674;SDS011;18276;45.520;11.018;2022-09-01T11:53:46;0.82;;;0.82;;
31674;SDS011;18276;45.520;11.018;2022-09-01T11:56:19;1.27;;;1.17;;
31674;SDS011;18276;45.520;11.018;2022-09-01T11:58:51;1.33;;;1.23;;
31674;SDS011;18276;45.520;11.018;2022-09-01T12:01:20;2.15;;;1.17;;
31674;SDS011;18276;45.520;11.018;2022-09-01T12:04:18;1.05;;;1.02;;
31674;SDS011;18276;45.520;11.018;2022-09-01T12:07:22;1.92;;;1.00;;
31674;SDS011;18276;45.520;11.018;2022-09-01T12:10:18;0.80;;;0.80;;
31674;SDS011;18276;45.520;11.018;2022-09-01T12:13:08;1.67;;;0.70;;
31674;SDS011;18276;45.520;11.018;2022-09-01T12:15:54;1.30;;;0.77;;
31674;SDS011;18276;45.520;11.018;2022-09-01T12:18:54;1.20;;;1.10;;
31674;SDS011;18276;45.520;11.018;2022-09-01T12:21:25;1.77;;;1.00;;
31674;SDS011;18276;45.520;11.018;2022-09-01T12:23:52;1.20;;;1.10;;
31674;SDS011;18276;45.520;11.018;2022-09-01T12:26:34;1.70;;;1.33;;
31674;SDS011;18276;45.520;11.018;2022-09-01T12:29:02;2.40;;;1.13;;
31674;SDS011;18276;45.520;11.018;2022-09-01T12:31:30;1.20;;;1.08;;
31674;SDS011;18276;45.520;11.018;2022-09-01T12:33:57;1.48;;;1.35;;
31674;SDS011;18276;45.520;11.018;2022-09-01T12:36:25;2.40;;;1.10;;
31674;SDS011;18276;45.520;11.018;2022-09-01T12:38:56;1.20;;;0.80;;
31674;SDS011;18276;45.520;11.018;2022-09-01T12:41:44;1.17;;;1.17;;
31674;SDS011;18276;45.520;11.018;2022-09-01T12:47:01;1.52;;;1.17;;
31674;SDS011;18276;45.520;11.018;2022-09-01T12:49:41;1.48;;;0.90;;
31674;SDS011;18276;45.520;11.018;2022-09-01T12:54:47;2.25;;;1.20;;
31674;SDS011;18276;45.520;11.018;2022-09-01T12:57:24;1.50;;;1.40;;
31674;SDS011;18276;45.520;11.018;2022-09-01T13:00:07;2.55;;;1.20;;
31674;SDS011;18276;45.520;11.018;2022-09-01T13:02:41;1.33;;;1.23;;
31674;SDS011;18276;45.520;11.018;2022-09-01T13:05:45;1.40;;;1.30;;
31674;SDS011;18276;45.520;11.018;2022-09-01T13:08:09;1.67;;;1.30;;
31674;SDS011;18276;45.520;11.018;2022-09-01T13:10:39;1.15;;;1.02;;
31674;SDS011;18276;45.520;11.018;2022-09-01T13:13:11;1.83;;;1.10;;
31674;SDS011;18276;45.520;11.018;2022-09-01T13:15:40;1.75;;;1.10;;
31674;SDS011;18276;45.520;11.018;2022-09-01T13:18:09;1.35;;;1.00;;
31674;SDS011;18276;45.520;11.018;2022-09-01T13:20:37;1.17;;;1.00;;
31674;SDS011;18276;45.520;11.018;2022-09-01T13:23:04;2.88;;;1.50;;
31674;SDS011;18276;45.520;11.018;2022-09-01T13:25:31;1.55;;;1.10;;
31674;SDS011;18276;45.520;11.018;2022-09-01T13:27:58;1.13;;;1.02;;
31674;SDS011;18276;45.520;11.018;2022-09-01T13:30:28;1.88;;;1.00;;
31674;SDS011;18276;45.520;11.018;2022-09-01T13:32:55;1.30;;;1.17;;
31674;SDS011;18276;45.520;11.018;2022-09-01T13:35:43;4.05;;;1.92;;
31674;SDS011;18276;45.520;11.018;2022-09-01T13:38:10;1.90;;;1.25;;
31674;SDS011;18276;45.520;11.018;2022-09-01T13:40:41;1.17;;;1.02;;
31674;SDS011;18276;45.520;11.018;2022-09-01T13:43:15;3.83;;;3.05;;
31674;SDS011;18276;45.520;11.018;2022-09-01T13:45:45;2.33;;;1.08;;
31674;SDS011;18276;45.520;11.018;2022-09-01T13:48:13;1.08;;;1.02;;
31674;SDS011;18276;45.520;11.018;2022-09-01T13:50:43;3.28;;;2.75;;
31674;SDS011;18276;45.520;11.018;2022-09-01T13:53:32;2.45;;;1.27;;
31674;SDS011;18276;45.520;11.018;2022-09-01T13:55:59;1.45;;;1.35;;
31674;SDS011;18276;45.520;11.018;2022-09-01T13:58:26;3.47;;;0.90;;
31674;SDS011;18276;45.520;11.018;2022-09-01T14:00:53;3.83;;;1.33;;
31674;SDS011;18276;45.520;11.018;2022-09-01T14:03:21;2.65;;;1.45;;
31674;SDS011;18276;45.520;11.018;2022-09-01T14:05:49;5.55;;;1.13;;
31674;SDS011;18276;45.520;11.018;2022-09-01T14:08:19;1.45;;;1.10;;
31674;SDS011;18276;45.520;11.018;2022-09-01T14:10:48;1.63;;;1.25;;
31674;SDS011;18276;45.520;11.018;2022-09-01T14:13:18;2.03;;;1.00;;
31674;SDS011;18276;45.520;11.018;2022-09-01T14:15:46;3.08;;;1.13;;
31674;SDS011;18276;45.520;11.018;2022-09-01T14:18:14;3.10;;;1.20;;
31674;SDS011;18276;45.520;11.018;2022-09-01T14:20:44;1.10;;;0.90;;
31674;SDS011;18276;45.520;11.018;2022-09-01T14:23:13;4.82;;;1.00;;
31674;SDS011;18276;45.520;11.018;2022-09-01T14:25:45;1.42;;;1.10;;
31674;SDS011;18276;45.520;11.018;2022-09-01T14:28:14;8.52;;;1.38;;
31674;SDS011;18276;45.520;11.018;2022-09-01T14:30:46;2.78;;;1.30;;
31674;SDS011;18276;45.520;11.018;2022-09-01T14:33:14;2.35;;;1.20;;
31674;SDS011;18276;45.520;11.018;2022-09-01T14:35:43;6.07;;;1.55;;
31674;SDS011;18276;45.520;11.018;2022-09-01T14:38:13;5.40;;;2.45;;
31674;SDS011;18276;45.520;11.018;2022-09-01T14:40:40;2.38;;;1.05;;
31674;SDS011;18276;45.520;11.018;2022-09-01T14:43:09;7.53;;;1.30;;
31674;SDS011;18276;45.520;11.018;2022-09-01T14:45:39;5.40;;;1.17;;
31674;SDS011;18276;45.520;11.018;2022-09-01T14:48:10;4.20;;;1.27;;
31674;SDS011;18276;45.520;11.018;2022-09-01T14:50:45;8.15;;;1.30;;
31674;SDS011;18276;45.520;11.018;2022-09-01T14:53:14;2.83;;;1.10;;
31674;SDS011;18276;45.520;11.018;2022-09-01T14:55:42;6.18;;;1.23;;
31674;SDS011;18276;45.520;11.018;2022-09-01T14:58:09;6.18;;;1.40;;
31674;SDS011;18276;45.520;11.018;2022-09-01T15:00:36;6.03;;;1.50;;
31674;SDS011;18276;45.520;11.018;2022-09-01T15:03:07;8.90;;;1.85;;
31674;SDS011;18276;45.520;11.018;2022-09-01T15:05:37;3.47;;;1.15;;
31674;SDS011;18276;45.520;11.018;2022-09-01T15:08:06;2.42;;;1.42;;
31674;SDS011;18276;45.520;11.018;2022-09-01T15:10:37;8.65;;;1.40;;
31674;SDS011;18276;45.520;11.018;2022-09-01T15:13:05;4.80;;;1.20;;
31674;SDS011;18276;45.520;11.018;2022-09-01T15:15:33;6.20;;;1.40;;
31674;SDS011;18276;45.520;11.018;2022-09-01T15:18:00;6.70;;;1.50;;
31674;SDS011;18276;45.520;11.018;2022-09-01T15:20:27;4.72;;;1.27;;
31674;SDS011;18276;45.520;11.018;2022-09-01T15:23:14;1.80;;;0.90;;
31674;SDS011;18276;45.520;11.018;2022-09-01T15:25:46;3.38;;;1.30;;
31674;SDS011;18276;45.520;11.018;2022-09-01T15:28:16;8.73;;;1.23;;
31674;SDS011;18276;45.520;11.018;2022-09-01T15:30:43;1.95;;;1.33;;
31674;SDS011;18276;45.520;11.018;2022-09-01T15:33:12;3.50;;;2.15;;
31674;SDS011;18276;45.520;11.018;2022-09-01T15:35:42;4.05;;;1.20;;
31674;SDS011;18276;45.520;11.018;2022-09-01T15:38:10;3.67;;;1.25;;
31674;SDS011;18276;45.520;11.018;2022-09-01T15:40:43;3.15;;;1.27;;
31674;SDS011;18276;45.520;11.018;2022-09-01T15:43:22;5.78;;;1.42;;
31674;SDS011;18276;45.520;11.018;2022-09-01T15:45:49;4.38;;;1.30;;
31674;SDS011;18276;45.520;11.018;2022-09-01T15:48:17;6.03;;;1.70;;
31674;SDS011;18276;45.520;11.018;2022-09-01T15:50:43;2.47;;;1.42;;
31674;SDS011;18276;45.520;11.018;2022-09-01T15:53:10;2.50;;;1.30;;
31674;SDS011;18276;45.520;11.018;2022-09-01T15:58:07;1.58;;;1.35;;
31674;SDS011;18276;45.520;11.018;2022-09-01T16:00:34;2.80;;;1.98;;
31674;SDS011;18276;45.520;11.018;2022-09-01T16:03:04;4.72;;;2.00;;
31674;SDS011;18276;45.520;11.018;2022-09-01T16:05:32;7.28;;;2.13;;
31674;SDS011;18276;45.520;11.018;2022-09-01T16:08:02;3.25;;;1.60;;
31674;SDS011;18276;45.520;11.018;2022-09-01T16:13:05;4.53;;;1.63;;
31674;SDS011;18276;45.520;11.018;2022-09-01T16:15:33;5.28;;;2.17;;